Time;durP1;ratioP1;P1;durP2;ratioP2;P2;SDS_P1;SDS_P2;PMS_P1;PMS_P2;Temp;Humidity;BMP_temperature;BMP_pressure;BME280_temperature;BME280_humidity;BME280_pressure;Samples;Min_cycle;Max_cycle;Signal;HPM_P1;HPM_P2
2022/07/20 00:01:44;;;;;;;;;;;29.30;34.00;;;;;;8363818;28;20506;-46
2022/07/20 00:05:48;;;;;;;;;;;29.30;34.00;;;;;;8363970;28;19967;-44
2022/07/20 00:14:08;;;;;;;;;;;29.30;34.60;;;;;;8363651;28;20020;-45
2022/07/20 00:18:08;;;;;;;;;;;29.30;34.10;;;;;;8364489;28;19912;-45
2022/07/20 00:22:09;;;;;;;;;;;29.30;34.10;;;;;;8363875;28;19955;-45
2022/07/20 00:26:09;;;;;;;;;;;29.20;34.10;;;;;;8362716;28;19970;-45
2022/07/20 00:30:11;;;;;;;;;;;29.20;34.10;;;;;;8363495;28;19924;-44
2022/07/20 00:34:11;;;;;;;;;;;29.20;34.20;;;;;;8363255;28;19925;-45
2022/07/20 00:38:12;;;;;;;;;;;29.20;34.20;;;;;;8363105;28;19913;-45
2022/07/20 00:42:13;;;;;;;;;;;29.20;34.30;;;;;;8363234;28;19917;-45
2022/07/20 00:46:13;;;;;;;;;;;29.20;34.30;;;;;;8363181;28;19917;-45
2022/07/20 00:50:14;;;;;;;;;;;29.10;34.30;;;;;;8362683;28;19921;-45
2022/07/20 00:54:15;;;;;;;;;;;29.10;34.30;;;;;;8363098;28;20400;-45
2022/07/20 00:58:15;;;;;;;;;;;29.10;34.30;;;;;;8363277;28;19916;-44
2022/07/20 01:02:16;;;;;;;;;;;29.10;34.40;;;;;;8362635;28;20054;-45
2022/07/20 01:06:16;;;;;;;;;;;29.10;34.40;;;;;;8361160;28;19924;-44
2022/07/20 01:10:18;;;;;;;;;;;29.10;34.50;;;;;;8362869;28;19917;-44
2022/07/20 01:14:19;;;;;;;;;;;29.00;34.40;;;;;;8362405;28;19979;-44
2022/07/20 01:18:19;;;;;;;;;;;29.00;34.40;;;;;;8362940;28;20281;-46
2022/07/20 01:22:20;;;;;;;;;;;29.00;34.50;;;;;;8362668;28;20370;-46
2022/07/20 01:26:21;;;;;;;;;;;29.00;34.50;;;;;;8362041;28;19917;-45
2022/07/20 01:34:59;;;;;;;;;;;29.00;34.50;;;;;;8379385;28;19931;-44
2022/07/20 01:39:00;;;;;;;;;;;29.00;34.60;;;;;;8364606;28;19913;-45
2022/07/20 01:43:00;;;;;;;;;;;29.00;34.60;;;;;;8368434;28;20055;-45
2022/07/20 01:47:01;;;;;;;;;;;28.90;34.50;;;;;;8368003;28;19917;-44
2022/07/20 01:51:01;;;;;;;;;;;28.90;34.60;;;;;;8368333;28;19917;-45
2022/07/20 01:55:02;;;;;;;;;;;28.90;34.50;;;;;;8368199;28;19920;-45
2022/07/20 01:59:03;;;;;;;;;;;28.90;34.60;;;;;;8367832;28;20370;-44
2022/07/20 02:03:03;;;;;;;;;;;28.90;34.60;;;;;;8367985;28;19923;-45
2022/07/20 02:07:04;;;;;;;;;;;28.90;34.60;;;;;;8367973;28;19928;-45
2022/07/20 02:11:04;;;;;;;;;;;28.90;34.60;;;;;;8367142;28;19928;-44
2022/07/20 02:15:08;;;;;;;;;;;28.90;34.70;;;;;;8367787;28;19932;-44
2022/07/20 02:19:09;;;;;;;;;;;28.90;34.70;;;;;;8367822;28;19919;-45
2022/07/20 02:23:10;;;;;;;;;;;28.80;34.70;;;;;;8366858;28;19940;-44
2022/07/20 02:27:11;;;;;;;;;;;28.80;34.70;;;;;;8367362;28;19924;-45
2022/07/20 02:31:11;;;;;;;;;;;28.80;34.70;;;;;;8367159;28;19917;-44
2022/07/20 02:35:12;;;;;;;;;;;28.80;34.70;;;;;;8366403;28;19924;-45
2022/07/20 02:39:12;;;;;;;;;;;28.80;34.80;;;;;;8366979;28;19913;-44
2022/07/20 02:43:12;;;;;;;;;;;28.80;34.80;;;;;;8366714;28;20324;-45
2022/07/20 02:47:13;;;;;;;;;;;28.80;34.80;;;;;;8366216;28;20410;-44
2022/07/20 02:51:13;;;;;;;;;;;28.80;34.80;;;;;;8365944;28;19960;-45
2022/07/20 02:55:14;;;;;;;;;;;28.70;34.80;;;;;;8366216;28;20289;-44
2022/07/20 02:59:14;;;;;;;;;;;28.70;34.80;;;;;;8366217;28;19913;-44
2022/07/20 03:03:15;;;;;;;;;;;28.70;34.80;;;;;;8366178;28;20281;-44
2022/07/20 03:07:16;;;;;;;;;;;28.70;34.90;;;;;;8366125;28;20437;-45
2022/07/20 03:11:16;;;;;;;;;;;28.70;34.80;;;;;;8365281;28;19921;-45
2022/07/20 03:15:16;;;;;;;;;;;28.70;34.90;;;;;;8365577;28;19956;-45
2022/07/20 03:19:17;;;;;;;;;;;28.70;34.90;;;;;;8365764;28;20297;-44
2022/07/20 03:23:18;;;;;;;;;;;28.70;34.90;;;;;;8364902;28;19917;-44
2022/07/20 03:27:18;;;;;;;;;;;28.70;35.00;;;;;;8365527;28;20300;-45
2022/07/20 03:31:18;;;;;;;;;;;28.70;34.90;;;;;;8365109;28;20396;-44
2022/07/20 03:35:19;;;;;;;;;;;28.70;35.00;;;;;;8364448;28;19931;-44
2022/07/20 03:39:20;;;;;;;;;;;28.70;35.10;;;;;;8365179;28;19913;-44
2022/07/20 03:43:21;;;;;;;;;;;28.60;35.00;;;;;;8364724;28;19917;-45
2022/07/20 03:47:22;;;;;;;;;;;28.60;35.00;;;;;;8364074;28;19917;-45
2022/07/20 03:51:22;;;;;;;;;;;28.60;35.10;;;;;;8364457;28;20011;-44
2022/07/20 03:55:23;;;;;;;;;;;28.60;35.10;;;;;;8364403;28;19921;-44
2022/07/20 03:59:23;;;;;;;;;;;28.60;35.10;;;;;;8363897;28;19924;-45
2022/07/20 04:03:24;;;;;;;;;;;28.60;35.10;;;;;;8349434;28;19917;-45
2022/07/20 04:07:24;;;;;;;;;;;28.50;35.10;;;;;;8349739;28;19996;-45
2022/07/20 04:11:25;;;;;;;;;;;28.50;35.10;;;;;;8363337;28;20015;-44
2022/07/20 04:15:25;;;;;;;;;;;28.50;35.10;;;;;;8363896;28;19939;-45
2022/07/20 04:19:26;;;;;;;;;;;28.50;35.20;;;;;;8364026;28;19921;-45
2022/07/20 04:23:26;;;;;;;;;;;28.50;35.10;;;;;;8363160;28;19955;-44
2022/07/20 04:27:27;;;;;;;;;;;28.50;35.20;;;;;;8363760;28;19999;-44
2022/07/20 04:31:27;;;;;;;;;;;28.50;35.20;;;;;;8363549;28;20047;-45
2022/07/20 04:35:28;;;;;;;;;;;28.50;35.20;;;;;;8362835;28;19936;-45
2022/07/20 04:39:28;;;;;;;;;;;28.50;35.20;;;;;;8363836;28;19928;-44
2022/07/20 04:43:29;;;;;;;;;;;28.50;35.20;;;;;;8363166;28;19963;-45
2022/07/20 04:47:29;;;;;;;;;;;28.40;35.20;;;;;;8362668;28;19917;-45
2022/07/20 04:51:30;;;;;;;;;;;28.40;35.20;;;;;;8363459;28;19920;-44
2022/07/20 04:55:31;;;;;;;;;;;28.40;35.20;;;;;;8362832;28;19929;-45
2022/07/20 04:59:31;;;;;;;;;;;28.40;35.20;;;;;;8362827;28;20022;-44
2022/07/20 05:03:31;;;;;;;;;;;28.50;35.20;;;;;;8362892;28;19939;-45
2022/07/20 05:07:32;;;;;;;;;;;28.50;35.20;;;;;;8363009;28;20384;-45
2022/07/20 05:11:33;;;;;;;;;;;28.40;35.20;;;;;;8362325;28;19921;-45
2022/07/20 05:15:34;;;;;;;;;;;28.40;35.20;;;;;;8369088;28;19929;-45
2022/07/20 05:19:34;;;;;;;;;;;28.40;35.20;;;;;;8368967;28;19924;-44
2022/07/20 05:23:34;;;;;;;;;;;28.40;35.20;;;;;;8369252;28;19917;-45
2022/07/20 05:27:35;;;;;;;;;;;28.40;35.20;;;;;;8368931;28;19920;-45
2022/07/20 05:31:36;;;;;;;;;;;28.40;35.20;;;;;;8368360;28;19927;-44
2022/07/20 05:35:36;;;;;;;;;;;28.40;35.20;;;;;;8368787;28;19921;-44
2022/07/20 05:39:37;;;;;;;;;;;28.40;35.20;;;;;;8368618;28;19944;-45
2022/07/20 05:43:37;;;;;;;;;;;28.40;35.20;;;;;;8367921;28;20346;-42
2022/07/20 05:47:38;;;;;;;;;;;28.40;35.20;;;;;;8368637;28;19939;-44
2022/07/20 05:51:38;;;;;;;;;;;28.50;35.20;;;;;;8368251;28;20384;-45
2022/07/20 05:55:39;;;;;;;;;;;28.50;35.20;;;;;;8367928;28;20309;-45
2022/07/20 05:59:40;;;;;;;;;;;28.50;35.20;;;;;;8367994;28;19970;-45
2022/07/20 06:03:41;;;;;;;;;;;28.40;35.20;;;;;;8367754;28;19916;-44
2022/07/20 06:07:41;;;;;;;;;;;28.40;35.20;;;;;;8367181;28;20431;-46
2022/07/20 06:11:42;;;;;;;;;;;28.40;35.20;;;;;;8367614;28;19913;-45
2022/07/20 06:15:42;;;;;;;;;;;28.50;35.30;;;;;;8367664;28;20313;-46
2022/07/20 06:19:42;;;;;;;;;;;28.40;35.20;;;;;;8366912;28;20404;-45
2022/07/20 06:23:43;;;;;;;;;;;28.40;35.30;;;;;;8348479;28;19967;-45
2022/07/20 06:27:43;;;;;;;;;;;28.40;35.30;;;;;;8366929;28;19919;-44
2022/07/20 06:31:44;;;;;;;;;;;28.40;35.30;;;;;;8366301;28;19917;-45
2022/07/20 06:35:44;;;;;;;;;;;28.40;35.30;;;;;;8366991;28;19920;-45
2022/07/20 06:39:45;;;;;;;;;;;28.50;35.40;;;;;;8366646;28;20293;-45
2022/07/20 06:43:45;;;;;;;;;;;28.40;35.30;;;;;;8366082;28;20097;-46
2022/07/20 06:47:46;;;;;;;;;;;28.40;35.30;;;;;;8366497;28;19928;-45
2022/07/20 06:51:47;;;;;;;;;;;28.40;35.30;;;;;;8366507;28;19924;-46
2022/07/20 06:55:47;;;;;;;;;;;28.40;35.30;;;;;;8348013;28;19932;-45
2022/07/20 06:59:49;;;;;;;;;;;28.40;35.30;;;;;;8366102;28;19917;-45
2022/07/20 07:03:49;;;;;;;;;;;28.40;35.20;;;;;;8365937;28;19921;-45
2022/07/20 07:07:49;;;;;;;;;;;28.40;35.30;;;;;;8365498;28;19913;-45
2022/07/20 07:11:50;;;;;;;;;;;28.40;35.30;;;;;;8343581;28;19919;-47
2022/07/20 07:15:50;;;;;;;;;;;28.40;35.30;;;;;;8365663;28;19925;-46
2022/07/20 07:19:51;;;;;;;;;;;28.40;35.30;;;;;;8365083;28;19917;-46
2022/07/20 07:23:51;;;;;;;;;;;28.40;35.30;;;;;;8347491;28;19924;-45
2022/07/20 07:27:52;;;;;;;;;;;28.40;35.40;;;;;;8365866;28;20285;-46
2022/07/20 07:31:53;;;;;;;;;;;28.40;35.40;;;;;;8364727;28;19971;-47
2022/07/20 07:35:54;;;;;;;;;;;28.40;35.40;;;;;;8364145;28;19921;-46
2022/07/20 07:39:54;;;;;;;;;;;28.40;35.40;;;;;;8364960;28;19998;-46
2022/07/20 07:43:55;;;;;;;;;;;28.40;35.40;;;;;;8364322;28;19917;-47
2022/07/20 07:47:55;;;;;;;;;;;28.40;35.40;;;;;;8364797;28;19916;-46
2022/07/20 07:51:56;;;;;;;;;;;28.40;35.40;;;;;;8364543;28;19924;-46
2022/07/20 07:55:56;;;;;;;;;;;28.40;35.40;;;;;;8364069;28;20439;-46
2022/07/20 07:59:57;;;;;;;;;;;28.40;35.50;;;;;;8364310;28;20003;-45
2022/07/20 08:03:57;;;;;;;;;;;28.40;35.40;;;;;;8364265;28;20346;-46
2022/07/20 08:08:03;;;;;;;;;;;28.50;35.50;;;;;;8363624;28;20358;-46
2022/07/20 08:12:04;;;;;;;;;;;28.50;35.50;;;;;;8369566;28;19959;-46
2022/07/20 08:16:04;;;;;;;;;;;28.50;35.50;;;;;;8364068;28;20282;-46
2022/07/20 08:20:06;;;;;;;;;;;28.50;35.60;;;;;;8363430;28;19921;-46
2022/07/20 08:24:07;;;;;;;;;;;28.50;35.60;;;;;;8363762;28;20443;-47
2022/07/20 08:28:15;;;;;;;;;;;28.50;35.60;;;;;;8363671;28;19913;-46
2022/07/20 08:32:15;;;;;;;;;;;28.50;35.60;;;;;;8363023;28;19936;-46
2022/07/20 08:36:16;;;;;;;;;;;28.50;35.60;;;;;;8363749;28;19959;-46
2022/07/20 08:40:16;;;;;;;;;;;28.50;35.60;;;;;;8363382;28;19928;-46
2022/07/20 08:44:17;;;;;;;;;;;28.60;35.60;;;;;;8362848;28;19921;-45
2022/07/20 08:48:18;;;;;;;;;;;28.60;35.70;;;;;;8362749;28;19913;-47
2022/07/20 08:52:18;;;;;;;;;;;28.60;35.70;;;;;;8363034;28;19916;-46
2022/07/20 08:56:19;;;;;;;;;;;28.60;35.70;;;;;;8362671;28;19982;-46
2022/07/20 09:00:19;;;;;;;;;;;28.60;35.80;;;;;;8363102;28;20311;-46
2022/07/20 09:04:20;;;;;;;;;;;28.60;35.80;;;;;;8363179;28;19959;-46
2022/07/20 09:08:20;;;;;;;;;;;28.60;35.80;;;;;;8362350;28;20357;-46
2022/07/20 09:12:21;;;;;;;;;;;28.60;35.80;;;;;;8362943;28;19913;-46
2022/07/20 09:16:42;;;;;;;;;;;28.60;35.80;;;;;;8362883;28;20377;-45
2022/07/20 09:20:47;;;;;;;;;;;28.70;35.90;;;;;;8362654;28;19921;-46
2022/07/20 09:24:48;;;;;;;;;;;28.70;35.80;;;;;;8362909;28;19917;-46
2022/07/20 09:28:49;;;;;;;;;;;28.70;35.80;;;;;;8362007;28;20412;-45
2022/07/20 09:32:50;;;;;;;;;;;28.70;35.80;;;;;;8362683;28;20316;-46
2022/07/20 09:36:50;;;;;;;;;;;28.80;35.80;;;;;;8362757;28;19979;-46
2022/07/20 09:40:52;;;;;;;;;;;28.80;35.80;;;;;;8361786;28;19916;-45
2022/07/20 09:44:53;;;;;;;;;;;28.80;35.80;;;;;;8362676;28;20000;-46
2022/07/20 09:48:54;;;;;;;;;;;28.80;35.80;;;;;;8362239;28;19913;-45
2022/07/20 09:52:55;;;;;;;;;;;28.80;35.80;;;;;;8361754;28;19917;-45
2022/07/20 09:56:56;;;;;;;;;;;28.80;35.80;;;;;;8362661;28;20362;-46
2022/07/20 10:00:57;;;;;;;;;;;28.90;35.80;;;;;;8365529;28;19916;-45
2022/07/20 10:04:59;;;;;;;;;;;28.90;35.80;;;;;;8351797;28;20285;-45
2022/07/20 10:09:00;;;;;;;;;;;28.90;35.80;;;;;;8346922;28;19963;-45
2022/07/20 10:13:00;;;;;;;;;;;28.90;35.80;;;;;;8367719;28;20370;-45
2022/07/20 10:17:01;;;;;;;;;;;28.90;35.80;;;;;;8367306;28;20003;-46
2022/07/20 10:21:21;;;;;;;;;;;28.90;35.80;;;;;;8367445;28;19917;-46
2022/07/20 10:25:25;;;;;;;;;;;28.90;35.80;;;;;;8367160;28;20285;-45
2022/07/20 10:29:27;;;;;;;;;;;29.00;35.80;;;;;;8366748;28;19916;-45
2022/07/20 10:33:29;;;;;;;;;;;29.00;35.80;;;;;;8367154;28;19932;-45
2022/07/20 10:37:29;;;;;;;;;;;29.00;35.90;;;;;;8367202;28;19980;-48
2022/07/20 10:41:33;;;;;;;;;;;29.00;35.90;;;;;;8366297;28;20372;-46
2022/07/20 10:45:34;;;;;;;;;;;29.10;35.90;;;;;;8366702;28;19923;-46
2022/07/20 10:49:53;;;;;;;;;;;29.10;35.80;;;;;;8366217;28;19923;-45
2022/07/20 10:53:53;;;;;;;;;;;29.10;35.90;;;;;;8366394;28;20378;-46
2022/07/20 10:57:54;;;;;;;;;;;29.10;35.80;;;;;;8366327;28;19920;-46
2022/07/20 11:01:54;;;;;;;;;;;29.20;36.00;;;;;;8365880;28;19913;-46
2022/07/20 11:06:15;;;;;;;;;;;29.20;35.90;;;;;;8366126;28;19917;-46
2022/07/20 11:10:25;;;;;;;;;;;29.20;35.90;;;;;;8365674;28;19917;-46
2022/07/20 11:14:25;;;;;;;;;;;29.20;35.80;;;;;;8365088;28;19932;-45
2022/07/20 11:18:28;;;;;;;;;;;29.30;36.30;;;;;;8365739;28;20294;-46
2022/07/20 11:22:28;;;;;;;;;;;29.20;36.20;;;;;;8365668;28;19917;-43
2022/07/20 11:26:29;;;;;;;;;;;29.30;36.00;;;;;;8364797;28;20062;-45
2022/07/20 11:30:35;;;;;;;;;;;29.30;36.10;;;;;;8365361;28;20293;-44
2022/07/20 11:34:49;;;;;;;;;;;29.30;36.10;;;;;;8364578;28;19925;-44
2022/07/20 11:38:51;;;;;;;;;;;29.30;36.10;;;;;;8364831;28;19916;-44
2022/07/20 11:43:11;;;;;;;;;;;29.30;36.10;;;;;;8364922;28;19917;-46
2022/07/20 11:47:11;;;;;;;;;;;29.30;36.20;;;;;;8364332;28;20007;-46
2022/07/20 11:51:12;;;;;;;;;;;29.30;36.20;;;;;;8364706;28;19924;-43
2022/07/20 11:55:12;;;;;;;;;;;29.30;36.00;;;;;;8364420;28;19925;-46
2022/07/20 11:59:13;;;;;;;;;;;29.30;36.00;;;;;;8363988;28;20344;-46
2022/07/20 12:03:13;;;;;;;;;;;29.30;36.00;;;;;;8364259;28;19912;-46
2022/07/20 12:11:34;;;;;;;;;;;29.30;36.80;;;;;;8363220;28;20392;-44
2022/07/20 12:15:36;;;;;;;;;;;29.30;36.50;;;;;;8363444;28;19925;-44
2022/07/20 12:19:37;;;;;;;;;;;29.40;36.70;;;;;;8363754;28;19913;-42
2022/07/20 12:23:38;;;;;;;;;;;29.40;36.00;;;;;;8362887;28;19917;-44
2022/07/20 12:27:38;;;;;;;;;;;29.40;36.00;;;;;;8363799;28;20392;-44
2022/07/20 12:31:39;;;;;;;;;;;29.40;35.90;;;;;;8363041;28;19916;-43
2022/07/20 12:35:48;;;;;;;;;;;29.40;35.90;;;;;;8363393;28;19932;-44
2022/07/20 12:39:53;;;;;;;;;;;29.50;35.90;;;;;;8363475;28;19966;-44
2022/07/20 12:43:54;;;;;;;;;;;29.50;35.90;;;;;;8361236;28;19925;-44
2022/07/20 12:47:54;;;;;;;;;;;29.50;35.90;;;;;;8330778;28;19940;-44
2022/07/20 12:51:55;;;;;;;;;;;29.50;35.90;;;;;;8357344;28;19917;-44
2022/07/20 12:55:56;;;;;;;;;;;29.50;35.90;;;;;;8357824;28;19924;-44
2022/07/20 12:59:56;;;;;;;;;;;29.60;35.80;;;;;;8363178;28;19924;-43
2022/07/20 13:03:57;;;;;;;;;;;29.60;35.60;;;;;;8362133;28;19928;-44
2022/07/20 13:07:58;;;;;;;;;;;29.60;35.70;;;;;;8362650;28;19923;-44
2022/07/20 13:11:58;;;;;;;;;;;29.60;35.70;;;;;;8363027;28;19917;-44
2022/07/20 13:15:59;;;;;;;;;;;29.60;35.70;;;;;;8362754;28;19925;-45
2022/07/20 13:20:00;;;;;;;;;;;29.70;35.70;;;;;;8362176;28;19940;-44
2022/07/20 13:24:00;;;;;;;;;;;29.70;35.70;;;;;;8362455;28;19913;-43
2022/07/20 13:28:00;;;;;;;;;;;29.70;35.40;;;;;;8362458;28;19913;-44
2022/07/20 13:32:01;;;;;;;;;;;29.70;35.50;;;;;;8361939;28;20305;-44
2022/07/20 13:36:01;;;;;;;;;;;29.70;35.60;;;;;;8367422;28;19925;-44
2022/07/20 13:40:03;;;;;;;;;;;29.70;35.50;;;;;;8368765;28;19921;-45
2022/07/20 13:44:03;;;;;;;;;;;29.70;35.40;;;;;;8367914;28;19913;-44
2022/07/20 13:48:04;;;;;;;;;;;29.70;35.60;;;;;;8368927;28;19913;-44
2022/07/20 13:52:04;;;;;;;;;;;29.70;35.60;;;;;;8368348;28;19921;-46
2022/07/20 13:56:06;;;;;;;;;;;29.80;35.60;;;;;;8367574;28;20339;-44
2022/07/20 14:00:08;;;;;;;;;;;29.80;35.60;;;;;;8368279;28;20314;-45
2022/07/20 14:04:10;;;;;;;;;;;29.80;35.60;;;;;;8368041;28;20415;-44
2022/07/20 14:08:11;;;;;;;;;;;29.80;35.60;;;;;;8367511;28;19913;-44
2022/07/20 14:12:12;;;;;;;;;;;29.80;35.50;;;;;;8367618;28;19992;-44
2022/07/20 14:16:12;;;;;;;;;;;29.80;35.50;;;;;;8367092;28;19925;-44
2022/07/20 14:20:13;;;;;;;;;;;29.80;35.60;;;;;;8366766;28;19917;-45
2022/07/20 14:24:13;;;;;;;;;;;29.80;35.30;;;;;;8343345;28;20067;-45
2022/07/20 14:28:14;;;;;;;;;;;29.80;35.50;;;;;;8366830;28;19940;-44
2022/07/20 14:32:14;;;;;;;;;;;29.70;35.40;;;;;;8366629;28;19959;-43
2022/07/20 14:36:15;;;;;;;;;;;29.80;35.40;;;;;;8366990;28;19932;-44
2022/07/20 14:40:15;;;;;;;;;;;29.80;35.50;;;;;;8366985;28;19924;-44
2022/07/20 14:44:16;;;;;;;;;;;29.80;35.60;;;;;;8365114;28;19978;-44
2022/07/20 14:48:16;;;;;;;;;;;29.70;35.60;;;;;;8366375;28;20007;-45
2022/07/20 14:52:16;;;;;;;;;;;29.80;35.70;;;;;;8365647;28;20377;-42
2022/07/20 14:56:17;;;;;;;;;;;29.70;35.70;;;;;;8365674;28;20396;-44
2022/07/20 15:00:18;;;;;;;;;;;29.80;35.80;;;;;;8365924;28;19917;-45
2022/07/20 15:04:18;;;;;;;;;;;29.70;35.80;;;;;;8355653;28;20370;-44
2022/07/20 15:08:20;;;;;;;;;;;29.70;35.70;;;;;;8363404;28;19963;-46
2022/07/20 15:12:20;;;;;;;;;;;29.80;35.80;;;;;;8365669;28;19916;-46
2022/07/20 15:16:21;;;;;;;;;;;29.70;35.70;;;;;;8365633;28;19924;-44
2022/07/20 15:20:21;;;;;;;;;;;29.70;35.80;;;;;;8364783;28;19923;-44
2022/07/20 15:24:22;;;;;;;;;;;29.70;35.80;;;;;;8363451;28;19917;-45
2022/07/20 15:28:22;;;;;;;;;;;29.80;35.70;;;;;;8363021;28;19963;-44
2022/07/20 15:32:23;;;;;;;;;;;29.80;35.70;;;;;;8361922;28;20362;-45
2022/07/20 15:36:23;;;;;;;;;;;29.80;35.70;;;;;;8361532;28;19924;-46
2022/07/20 15:40:24;;;;;;;;;;;29.80;35.60;;;;;;8361835;28;20297;-45
2022/07/20 15:44:24;;;;;;;;;;;29.80;35.80;;;;;;8363839;28;19920;-45
2022/07/20 15:48:25;;;;;;;;;;;29.80;35.80;;;;;;8364528;28;19923;-45
2022/07/20 15:52:25;;;;;;;;;;;29.80;35.90;;;;;;8364385;28;20011;-45
2022/07/20 15:57:18;;;;;;;;;;;29.80;35.90;;;;;;8363146;28;19925;-48
2022/07/20 16:00:46;;;;;;;;;;;29.80;36.00;;;;;;8364099;28;19921;-46
2022/07/20 16:04:47;;;;;;;;;;;29.70;36.00;;;;;;8333557;28;19933;-44
2022/07/20 16:08:47;;;;;;;;;;;29.70;36.20;;;;;;8362641;28;19925;-44
2022/07/20 16:12:48;;;;;;;;;;;29.70;36.50;;;;;;8363758;28;19940;-44
2022/07/20 16:16:49;;;;;;;;;;;29.70;36.90;;;;;;8363308;28;19925;-44
2022/07/20 16:20:49;;;;;;;;;;;29.70;36.90;;;;;;8363783;28;19987;-44
2022/07/20 16:24:50;;;;;;;;;;;29.70;37.30;;;;;;8364007;28;19913;-44
2022/07/20 16:28:50;;;;;;;;;;;29.70;37.10;;;;;;8363196;28;19916;-45
2022/07/20 16:32:51;;;;;;;;;;;29.70;38.00;;;;;;8363518;28;19916;-44
2022/07/20 16:36:51;;;;;;;;;;;29.70;38.00;;;;;;8363375;28;19998;-45
2022/07/20 16:40:52;;;;;;;;;;;29.70;37.60;;;;;;8362823;28;19924;-47
2022/07/20 16:44:52;;;;;;;;;;;29.60;37.30;;;;;;8345976;28;19975;-44
2022/07/20 16:48:53;;;;;;;;;;;29.60;37.60;;;;;;8363296;28;20425;-45
2022/07/20 16:52:53;;;;;;;;;;;29.60;37.60;;;;;;8362727;28;19924;-45
2022/07/20 16:56:54;;;;;;;;;;;29.60;37.40;;;;;;8362858;28;19925;-45
2022/07/20 17:00:55;;;;;;;;;;;29.60;37.30;;;;;;8363036;28;19916;-44
2022/07/20 17:04:55;;;;;;;;;;;29.60;37.20;;;;;;8347330;28;19923;-46
2022/07/20 17:08:56;;;;;;;;;;;29.60;37.10;;;;;;8361422;28;19917;-45
2022/07/20 17:12:56;;;;;;;;;;;29.60;37.00;;;;;;8369482;28;19916;-45
2022/07/20 17:16:57;;;;;;;;;;;29.60;36.90;;;;;;8368925;28;19924;-46
2022/07/20 17:20:57;;;;;;;;;;;29.60;36.90;;;;;;8369471;28;19921;-45
2022/07/20 17:24:57;;;;;;;;;;;29.60;36.80;;;;;;8369207;28;20392;-46
2022/07/20 17:28:58;;;;;;;;;;;29.60;36.90;;;;;;8368477;28;19921;-44
2022/07/20 17:32:58;;;;;;;;;;;29.60;36.90;;;;;;8368776;28;21109;-45
2022/07/20 17:36:59;;;;;;;;;;;29.50;36.90;;;;;;8368711;28;20367;-44
2022/07/20 17:40:59;;;;;;;;;;;29.60;37.00;;;;;;8368047;28;19944;-45
2022/07/20 17:45:01;;;;;;;;;;;29.60;37.00;;;;;;8368694;28;19913;-44
2022/07/20 17:49:03;;;;;;;;;;;29.50;37.00;;;;;;8368400;28;19917;-44
2022/07/20 17:53:03;;;;;;;;;;;29.50;37.00;;;;;;8367740;28;19924;-44
2022/07/20 17:57:03;;;;;;;;;;;29.50;37.00;;;;;;8386058;28;19924;-44
2022/07/20 18:01:04;;;;;;;;;;;29.50;37.10;;;;;;8367774;28;19932;-45
2022/07/20 18:05:05;;;;;;;;;;;29.60;37.00;;;;;;8367669;28;20345;-45
2022/07/20 18:09:07;;;;;;;;;;;29.60;37.10;;;;;;8367777;28;19928;-46
2022/07/20 18:13:07;;;;;;;;;;;29.50;37.00;;;;;;8367607;28;19921;-45
2022/07/20 18:17:08;;;;;;;;;;;29.50;37.00;;;;;;8367026;28;19925;-45
2022/07/20 18:21:08;;;;;;;;;;;29.50;37.10;;;;;;8366342;28;19913;-46
2022/07/20 18:25:09;;;;;;;;;;;29.50;37.10;;;;;;8367661;28;19941;-45
2022/07/20 18:29:09;;;;;;;;;;;29.50;37.10;;;;;;8366783;28;19923;-44
2022/07/20 18:33:14;;;;;;;;;;;29.50;37.10;;;;;;8367243;28;19917;-44
2022/07/20 18:37:18;;;;;;;;;;;29.50;37.10;;;;;;8367133;28;19925;-45
2022/07/20 18:41:18;;;;;;;;;;;29.50;37.10;;;;;;8366452;28;20358;-44
2022/07/20 18:45:19;;;;;;;;;;;29.50;37.10;;;;;;8367058;28;19919;-44
2022/07/20 18:49:19;;;;;;;;;;;29.50;37.10;;;;;;8393978;28;19963;-44
2022/07/20 18:53:21;;;;;;;;;;;29.50;37.10;;;;;;8377210;28;19931;-46
2022/07/20 18:57:21;;;;;;;;;;;29.50;37.10;;;;;;8366389;28;19916;-44
2022/07/20 19:01:22;;;;;;;;;;;29.50;37.10;;;;;;8365388;28;19951;-44
2022/07/20 19:05:22;;;;;;;;;;;29.40;37.10;;;;;;8338186;28;19940;-45
2022/07/20 19:09:24;;;;;;;;;;;29.50;37.10;;;;;;8348059;28;19916;-46
2022/07/20 19:13:25;;;;;;;;;;;29.40;37.10;;;;;;8365686;28;20254;-46
2022/07/20 19:17:25;;;;;;;;;;;29.40;37.10;;;;;;8365136;28;19925;-45
2022/07/20 19:21:25;;;;;;;;;;;29.40;37.10;;;;;;8365879;28;19913;-45
2022/07/20 19:25:26;;;;;;;;;;;29.40;37.10;;;;;;8365780;28;19917;-44
2022/07/20 19:29:28;;;;;;;;;;;29.50;37.20;;;;;;8365550;28;20309;-44
2022/07/20 19:33:28;;;;;;;;;;;29.40;37.30;;;;;;8365305;28;20293;-44
2022/07/20 19:37:29;;;;;;;;;;;29.40;37.20;;;;;;8365243;28;19924;-44
2022/07/20 19:41:29;;;;;;;;;;;29.40;37.30;;;;;;8364486;28;19917;-44
2022/07/20 19:45:32;;;;;;;;;;;29.40;37.30;;;;;;8364774;28;21204;-44
2022/07/20 19:49:32;;;;;;;;;;;29.40;37.40;;;;;;8364849;28;20361;-44
2022/07/20 19:53:33;;;;;;;;;;;29.40;37.30;;;;;;8364137;28;19924;-44
2022/07/20 19:57:33;;;;;;;;;;;29.40;37.40;;;;;;8364418;28;19912;-44
2022/07/20 20:01:34;;;;;;;;;;;29.30;37.40;;;;;;8364350;28;19917;-44
2022/07/20 20:05:34;;;;;;;;;;;29.30;37.40;;;;;;8364342;28;19917;-44
2022/07/20 20:09:35;;;;;;;;;;;29.30;37.40;;;;;;8364544;28;19940;-44
2022/07/20 20:13:35;;;;;;;;;;;29.30;37.50;;;;;;8363586;28;19920;-45
2022/07/20 20:17:36;;;;;;;;;;;29.30;37.50;;;;;;8363959;28;20374;-45
2022/07/20 20:21:36;;;;;;;;;;;29.30;37.60;;;;;;8364423;28;19913;-44
2022/07/20 20:25:37;;;;;;;;;;;29.30;37.60;;;;;;8345646;28;20273;-45
2022/07/20 20:29:37;;;;;;;;;;;29.30;37.60;;;;;;8363683;28;20405;-45
2022/07/20 20:33:38;;;;;;;;;;;29.20;37.60;;;;;;8363460;28;19924;-44
2022/07/20 20:37:38;;;;;;;;;;;29.20;37.60;;;;;;8363168;28;20378;-45
2022/07/20 20:41:39;;;;;;;;;;;29.20;37.60;;;;;;8363461;28;19924;-44
2022/07/20 20:45:40;;;;;;;;;;;29.30;37.80;;;;;;8362757;28;20285;-45
2022/07/20 20:49:40;;;;;;;;;;;29.20;37.70;;;;;;8362826;28;19919;-44
2022/07/20 20:53:41;;;;;;;;;;;29.20;37.80;;;;;;8363032;28;19925;-44
2022/07/20 20:57:42;;;;;;;;;;;29.20;37.80;;;;;;8363120;28;20289;-46
2022/07/20 21:01:42;;;;;;;;;;;29.20;37.90;;;;;;8362851;28;19939;-44
2022/07/20 21:05:46;;;;;;;;;;;29.20;38.00;;;;;;8363175;28;19917;-44
2022/07/20 21:09:46;;;;;;;;;;;29.20;38.00;;;;;;8363032;28;19920;-44
2022/07/20 21:13:47;;;;;;;;;;;29.20;38.70;;;;;;8362327;28;20039;-44
2022/07/20 21:17:48;;;;;;;;;;;29.20;38.20;;;;;;8362906;28;20373;-46
2022/07/20 21:21:48;;;;;;;;;;;29.20;38.30;;;;;;8363296;28;19917;-45
2022/07/20 21:25:49;;;;;;;;;;;29.20;38.30;;;;;;8362343;28;19917;-45
2022/07/20 21:29:49;;;;;;;;;;;29.10;38.20;;;;;;8363003;28;19917;-45
2022/07/20 21:33:50;;;;;;;;;;;29.20;38.30;;;;;;8362538;28;19921;-45
2022/07/20 21:37:51;;;;;;;;;;;29.10;38.30;;;;;;8362164;28;19920;-45
2022/07/20 21:41:54;;;;;;;;;;;29.10;38.30;;;;;;8362721;28;19913;-45
2022/07/20 21:45:55;;;;;;;;;;;29.10;38.40;;;;;;8362484;28;20389;-45
2022/07/20 21:49:55;;;;;;;;;;;29.10;38.40;;;;;;8362039;28;19916;-45
2022/07/20 21:53:55;;;;;;;;;;;29.10;38.40;;;;;;8362806;28;19947;-45
2022/07/20 21:57:56;;;;;;;;;;;29.10;38.40;;;;;;8368364;28;20007;-46
2022/07/20 22:01:57;;;;;;;;;;;29.10;38.50;;;;;;8357805;28;19913;-45
2022/07/20 22:05:57;;;;;;;;;;;29.00;38.40;;;;;;8365251;28;20259;-44
2022/07/20 22:09:58;;;;;;;;;;;29.10;38.50;;;;;;8367135;28;20019;-45
2022/07/20 22:13:58;;;;;;;;;;;29.00;38.40;;;;;;8367261;28;19932;-46
2022/07/20 22:17:59;;;;;;;;;;;29.00;38.50;;;;;;8368106;28;19913;-45
2022/07/20 22:21:59;;;;;;;;;;;29.00;38.50;;;;;;8367876;28;19923;-45
2022/07/20 22:26:00;;;;;;;;;;;29.00;38.50;;;;;;8367002;28;20289;-45
2022/07/20 22:30:00;;;;;;;;;;;29.00;38.50;;;;;;8367406;28;19971;-45
2022/07/20 22:34:01;;;;;;;;;;;29.00;38.50;;;;;;8367057;28;19920;-45
2022/07/20 22:38:02;;;;;;;;;;;29.00;38.50;;;;;;8366565;28;20011;-45
2022/07/20 22:42:02;;;;;;;;;;;29.00;38.60;;;;;;8367287;28;19958;-46
2022/07/20 22:46:03;;;;;;;;;;;29.00;38.60;;;;;;8367042;28;20007;-45
2022/07/20 22:50:05;;;;;;;;;;;29.00;38.70;;;;;;8366525;28;19975;-44
2022/07/20 22:54:05;;;;;;;;;;;29.00;38.70;;;;;;8366838;28;19929;-46
2022/07/20 22:58:05;;;;;;;;;;;28.90;38.60;;;;;;8366505;28;20406;-45
2022/07/20 23:02:06;;;;;;;;;;;28.90;38.70;;;;;;8366234;28;19920;-45
2022/07/20 23:06:07;;;;;;;;;;;28.90;38.70;;;;;;8365830;28;19923;-45
2022/07/20 23:10:09;;;;;;;;;;;28.90;38.70;;;;;;8366135;28;19960;-45
2022/07/20 23:14:10;;;;;;;;;;;28.90;38.70;;;;;;8365454;28;20309;-45
2022/07/20 23:18:11;;;;;;;;;;;28.90;38.70;;;;;;8365808;28;20308;-45
2022/07/20 23:22:11;;;;;;;;;;;28.90;38.70;;;;;;8365898;28;19917;-46
2022/07/20 23:26:12;;;;;;;;;;;28.90;38.80;;;;;;8365141;28;19917;-45
2022/07/20 23:30:13;;;;;;;;;;;28.90;38.80;;;;;;8365441;28;19916;-45
2022/07/20 23:34:14;;;;;;;;;;;28.90;38.80;;;;;;8365390;28;19921;-45